Big Bear Station Historical Data
Daily Summary for May 8, 2017 Units:  English    Metric   Both
« Previous Day
Next Day »
Daily Weekly Monthly Yearly Custom
  High: Low: Average:
Temperature: 58.8 °F 25.9 °F 40.9 °F
Dew Point: 32.9 °F 23.8 °F 26.4 °F
Humidity: 93 % 27 % 62 %
Wind Speed: 7.8 mph 0.0 mph 2.8 mph
Wind Gust: -999.0 mph - -
Wind:- - SW
Pressure: 30.01 in 29.93 in -
Precipitation: 0.06 in    
Historical Graphs
 
 
Tabular Data for May 8, 2017
Time Temperature Dew Point Pressure Wind Wind Speed Wind Gust Humidity Rainfall Rate (Hourly)
00:10 27.5 °F 25.5 °F 29.95 in South 1.7 mph -999.0 mph 92 % 0 in
00:25 27.1 °F 24.8 °F 29.95 in South 1.7 mph -999.0 mph 91 % 0 in
00:40 27.1 °F 24.8 °F 29.95 in South 1.7 mph -999.0 mph 91 % 0 in
00:55 27.0 °F 24.5 °F 29.95 in Calm   -999.0 mph 90 % 0 in
01:10 26.8 °F 24.3 °F 29.95 in SSW 1.7 mph -999.0 mph 90 % 0 in
01:26 26.6 °F 24.3 °F 29.95 in Calm   -999.0 mph 91 % 0 in
01:41 26.4 °F 24.1 °F 29.95 in Calm   -999.0 mph 91 % 0 in
01:56 26.1 °F 23.8 °F 29.95 in Calm   -999.0 mph 91 % 0 in
02:12 26.2 °F 23.9 °F 29.94 in South 2.2 mph -999.0 mph 91 % 0 in
02:27 26.1 °F 24.1 °F 29.94 in South 2.7 mph -999.0 mph 92 % 0 in
02:42 26.1 °F 24.1 °F 29.94 in Calm   -999.0 mph 92 % 0 in
02:58 26.1 °F 24.4 °F 29.94 in SSE 2.2 mph -999.0 mph 93 % 0 in
03:13 25.9 °F 24.2 °F 29.93 in Calm   -999.0 mph 93 % 0 in
03:29 26.4 °F 24.4 °F 29.94 in South 2.2 mph -999.0 mph 92 % 0 in
03:44 26.2 °F 23.9 °F 29.94 in SSE 1.7 mph -999.0 mph 91 % 0 in
03:59 26.8 °F 24.5 °F 29.94 in Calm   -999.0 mph 91 % 0 in
04:14 26.4 °F 24.4 °F 29.94 in South 1.7 mph -999.0 mph 92 % 0 in
04:30 26.2 °F 23.9 °F 29.94 in South 2.7 mph -999.0 mph 91 % 0 in
04:45 26.6 °F 24.3 °F 29.94 in South 3.2 mph -999.0 mph 91 % 0 in
05:00 26.4 °F 24.1 °F 29.94 in SSW 1.1 mph -999.0 mph 91 % 0 in
05:15 26.6 °F 24.3 °F 29.94 in SSE 2.2 mph -999.0 mph 91 % 0 in
05:31 26.6 °F 24.3 °F 29.94 in South 1.7 mph -999.0 mph 91 % 0 in
05:46 26.4 °F 24.1 °F 29.95 in South 2.2 mph -999.0 mph 91 % 0 in
06:01 26.4 °F 24.1 °F 29.95 in South 1.7 mph -999.0 mph 91 % 0 in
06:16 26.2 °F 24.2 °F 29.95 in SSW 2.2 mph -999.0 mph 92 % 0 in
06:32 26.4 °F 24.4 °F 29.96 in South 1.7 mph -999.0 mph 92 % 0 in
06:47 26.8 °F 25.0 °F 29.96 in Calm   -999.0 mph 93 % 0 in
07:02 27.3 °F 25.3 °F 29.97 in Calm   -999.0 mph 92 % 0 in
07:17 28.8 °F 26.0 °F 29.97 in Calm   -999.0 mph 89 % 0 in
07:33 29.7 °F 26.3 °F 29.97 in Calm   -999.0 mph 87 % 0 in
07:48 31.3 °F 26.7 °F 29.97 in Calm   -999.0 mph 83 % 0 in
08:04 32.9 °F 28.0 °F 29.97 in West 2.2 mph -999.0 mph 82 % 0 in
08:19 33.4 °F 28.2 °F 29.97 in ENE 2.2 mph -999.0 mph 81 % 0 in
08:34 35.2 °F 28.7 °F 29.97 in WNW 1.7 mph -999.0 mph 77 % 0 in
08:49 36.7 °F 28.9 °F 29.98 in Calm   -999.0 mph 73 % 0 in
09:05 38.1 °F 26.6 °F 29.98 in South 4.2 mph -999.0 mph 63 % 0 in
09:20 39.6 °F 26.9 °F 29.98 in East 1.7 mph -999.0 mph 60 % 0 in
09:35 41.4 °F 29.0 °F 29.99 in North 7.3 mph -999.0 mph 61 % 0 in
09:50 42.6 °F 29.7 °F 29.99 in NNW 7.8 mph -999.0 mph 60 % 0 in
10:05 43.3 °F 31.5 °F 29.99 in NNW 3.7 mph -999.0 mph 63 % 0 in
10:21 44.1 °F 29.8 °F 29.99 in West 6.3 mph -999.0 mph 57 % 0 in
10:36 45.1 °F 32.9 °F 29.99 in NE 3.7 mph -999.0 mph 62 % 0 in
10:51 45.3 °F 32.2 °F 29.99 in NW 6.3 mph -999.0 mph 60 % 0 in
11:07 45.7 °F 30.5 °F 30.00 in North 4.2 mph -999.0 mph 55 % 0 in
11:22 47.8 °F 32.0 °F 29.99 in NW 7.3 mph -999.0 mph 54 % 0 in
11:37 48.4 °F 31.1 °F 30.00 in NNW 4.7 mph -999.0 mph 51 % 0 in
11:53 48.6 °F 30.8 °F 30.00 in NNW 5.8 mph -999.0 mph 50 % 0 in
12:09 49.8 °F 30.4 °F 29.99 in North 7.3 mph -999.0 mph 47 % 0 in
12:24 50.2 °F 30.7 °F 29.99 in NNW 4.7 mph -999.0 mph 47 % 0 in
12:39 51.1 °F 29.9 °F 30.00 in WNW 5.8 mph -999.0 mph 44 % 0 in
12:55 51.4 °F 30.2 °F 29.99 in NNW 7.8 mph -999.0 mph 44 % 0 in
13:10 52.3 °F 30.5 °F 29.99 in NW 5.8 mph -999.0 mph 43 % 0 in
13:25 53.4 °F 29.1 °F 29.99 in North 4.2 mph -999.0 mph 39 % 0 in
13:40 54.3 °F 29.9 °F 30.00 in NNE 2.7 mph -999.0 mph 39 % 0 in
13:56 53.8 °F 28.1 °F 30.00 in NNW 5.8 mph -999.0 mph 37 % 0 in
14:11 54.9 °F 27.0 °F 30.00 in NW 4.2 mph -999.0 mph 34 % 0 in
14:27 54.9 °F 25.6 °F 30.00 in NNW 3.2 mph -999.0 mph 32 % 0 in
14:42 55.6 °F 23.8 °F 29.99 in WSW 2.7 mph -999.0 mph 29 % 0 in
14:57 57.2 °F 25.2 °F 29.99 in NE 2.7 mph -999.0 mph 29 % 0 in
15:12 56.7 °F 24.8 °F 30.00 in NW 5.3 mph -999.0 mph 29 % 0 in
15:27 56.3 °F 26.0 °F 29.99 in NNE 3.2 mph -999.0 mph 31 % 0 in
15:43 55.9 °F 24.1 °F 29.99 in North 5.3 mph -999.0 mph 29 % 0 in
15:58 55.8 °F 24.0 °F 29.99 in ESE 2.7 mph -999.0 mph 29 % 0 in
16:13 55.8 °F 24.0 °F 29.99 in ESE 5.3 mph -999.0 mph 29 % 0 in
16:29 55.9 °F 25.7 °F 29.99 in NNE 4.2 mph -999.0 mph 31 % 0 in
16:44 58.3 °F 24.4 °F 29.99 in ESE 2.7 mph -999.0 mph 27 % 0 in
16:59 58.8 °F 24.9 °F 29.99 in WNW 6.8 mph -999.0 mph 27 % 0 in
17:14 57.6 °F 25.6 °F 29.99 in NNW 4.2 mph -999.0 mph 29 % 0 in
17:29 57.7 °F 25.6 °F 29.99 in WNW 5.3 mph -999.0 mph 29 % 0 in
17:45 56.7 °F 26.4 °F 29.99 in NW 6.3 mph -999.0 mph 31 % 0 in
18:00 55.4 °F 25.2 °F 30.00 in NNW 4.2 mph -999.0 mph 31 % 0 in
18:15 55.9 °F 25.7 °F 30.00 in North 2.7 mph -999.0 mph 31 % 0 in
18:30 55.0 °F 27.1 °F 29.99 in West 2.7 mph -999.0 mph 34 % 0 in
18:46 51.8 °F 25.7 °F 29.99 in NNE 2.7 mph -999.0 mph 36 % 0 in
19:01 51.4 °F 26.0 °F 29.99 in North 3.2 mph -999.0 mph 37 % 0 in
19:16 49.3 °F 25.4 °F 30.00 in NW 3.2 mph -999.0 mph 39 % 0 in
19:32 49.1 °F 26.4 °F 30.00 in NNW 2.2 mph -999.0 mph 41 % 0 in
19:47 48.2 °F 25.0 °F 30.00 in NNW 2.2 mph -999.0 mph 40 % 0 in
20:02 47.3 °F 26.5 °F 30.00 in NNE 1.1 mph -999.0 mph 44 % 0 in
20:17 46.2 °F 27.6 °F 30.00 in Calm   -999.0 mph 48 % 0 in
20:32 44.2 °F 25.7 °F 30.00 in SSE 1.7 mph -999.0 mph 48 % 0 in
20:48 43.7 °F 26.3 °F 30.00 in Calm   -999.0 mph 50 % 0 in
21:03 41.9 °F 26.5 °F 30.01 in SSE 1.7 mph -999.0 mph 54 % 0 in
21:18 41.4 °F 26.0 °F 30.01 in South 2.2 mph -999.0 mph 54 % 0 in
21:33 40.8 °F 26.3 °F 30.01 in WSW 2.2 mph -999.0 mph 56 % 0 in
21:49 40.5 °F 26.0 °F 30.01 in South 2.2 mph -999.0 mph 56 % 0 in
22:04 40.3 °F 26.7 °F 30.01 in SSE 2.2 mph -999.0 mph 58 % 0 in
22:19 40.1 °F 26.1 °F 30.01 in South 2.7 mph -999.0 mph 57 % 0 in
22:34 39.7 °F 24.4 °F 30.01 in SSW 1.1 mph -999.0 mph 54 % 0 in
22:49 39.9 °F 26.3 °F 30.01 in South 3.2 mph -999.0 mph 58 % 0 in
23:05 39.9 °F 26.3 °F 30.00 in SSE 2.2 mph -999.0 mph 58 % 0 in
23:20 39.7 °F 26.5 °F 30.00 in Calm   -999.0 mph 59 % 0 in
23:36 39.6 °F 27.3 °F 30.00 in South 1.7 mph -999.0 mph 61 % 0 in
23:51 39.4 °F 28.2 °F 30.00 in SSE 1.7 mph -999.0 mph 64 % 0 in
Big Bear CA Weather
Compliments of Weather Underground - 1.5 mb